Main page
METAR-TAF:

METAR-TAF

Airports :

Big Spring McMahon–Wrinkle Airport

Big Spring, Texas, United States

latitude: 32-12N, longitude: 101-31W, elevation: 2572 ft

Current weather observation

The report was made 39 minutes ago, at 05:30 UTC
Wind 13 mph from the South/Southeast
Temperature 70°F
Humidity 60%
Pressure 29.95 in. Hg
Visibility: 10 miles
Clear sky

METAR: KBPG 250530Z AUTO 16011KT 10SM CLR 21/13 A2995 RMK AO2 T02070134

Time: 01:09 (06:09 UTC)


TAF: missing

Weather observations and forecasts of more than 4000 airports (METAR and TAF reports).

The available stations are represented by yellow and red dots on the map.

Hover mouse over dot to see the name of the station.

Then click to see weather observations and forecasts.

To change the map : click on the green buttons with a black cross to zoom in, on the green button with a dash to zoom out, or on the green arrows for adjacent maps.


METAR-TAF: